Time;durP1;ratioP1;P1;durP2;ratioP2;P2;SDS_P1;SDS_P2;PMS_P1;PMS_P2;Temp;Humidity;BMP_temperature;BMP_pressure;BME280_temperature;BME280_humidity;BME280_pressure;Samples;Min_cycle;Max_cycle;Signal;HPM_P1;HPM_P2
2024/01/13 00:01:06;;;;;;;2.95;2.75;;;;;;;;;;5020264;28;20045;-79
2024/01/13 00:03:33;;;;;;;2.80;2.58;;;;;;;;;;5020636;28;20060;-79
2024/01/13 00:06:01;;;;;;;3.22;2.92;;;;;;;;;;5028844;28;20054;-79
2024/01/13 00:08:28;;;;;;;5.20;4.18;;;;;;;;;;5027844;28;20050;-79
2024/01/13 00:11:04;;;;;;;6.45;4.63;;;;;;;;;;5021244;28;20054;-79
2024/01/13 00:13:31;;;;;;;5.32;3.70;;;;;;;;;;5022348;28;20046;-79
2024/01/13 00:15:59;;;;;;;4.18;3.50;;;;;;;;;;5024684;28;20459;-79
2024/01/13 00:18:26;;;;;;;4.22;2.90;;;;;;;;;;5025704;28;20041;-79
2024/01/13 00:21:06;;;;;;;4.75;3.28;;;;;;;;;;5020773;28;20483;-79
2024/01/13 00:23:34;;;;;;;6.65;4.45;;;;;;;;;;5020742;28;20496;-79
2024/01/13 00:26:01;;;;;;;8.55;4.68;;;;;;;;;;5023852;28;20064;-80
2024/01/13 00:28:28;;;;;;;8.10;5.20;;;;;;;;;;5024590;28;20053;-79
2024/01/13 00:31:03;;;;;;;5.78;3.90;;;;;;;;;;5032084;28;20053;-80
2024/01/13 00:33:30;;;;;;;7.53;3.78;;;;;;;;;;5024383;28;20115;-81
2024/01/13 00:35:58;;;;;;;9.70;5.88;;;;;;;;;;5021804;28;20132;-81
2024/01/13 00:38:25;;;;;;;7.25;4.25;;;;;;;;;;5023013;28;20119;-80
2024/01/13 00:41:03;;;;;;;4.53;2.92;;;;;;;;;;5020261;28;20104;-81
2024/01/13 00:43:32;;;;;;;5.95;3.30;;;;;;;;;;5019680;28;20054;-80
2024/01/13 00:46:00;;;;;;;2.95;2.75;;;;;;;;;;5023350;28;20060;-81
2024/01/13 00:48:27;;;;;;;3.78;2.25;;;;;;;;;;5022977;28;20055;-80
2024/01/13 00:51:10;;;;;;;2.78;2.50;;;;;;;;;;5023145;28;20052;-80
2024/01/13 00:53:38;;;;;;;4.18;2.83;;;;;;;;;;5023735;28;20107;-81
2024/01/13 00:56:09;;;;;;;3.20;2.40;;;;;;;;;;5026608;28;20123;-80
2024/01/13 00:58:37;;;;;;;3.55;2.88;;;;;;;;;;5028419;28;20543;-81
2024/01/13 01:01:14;;;;;;;3.13;2.83;;;;;;;;;;5027601;28;20080;-82
2024/01/13 01:03:44;;;;;;;3.05;2.55;;;;;;;;;;5027318;28;20041;-80
2024/01/13 01:06:13;;;;;;;3.55;2.88;;;;;;;;;;5024445;28;20141;-81
2024/01/13 01:08:40;;;;;;;3.78;3.03;;;;;;;;;;5023289;28;20054;-80
2024/01/13 01:11:08;;;;;;;3.08;2.70;;;;;;;;;;5031512;28;20073;-81
2024/01/13 01:13:37;;;;;;;6.20;3.30;;;;;;;;;;5023000;28;20053;-81
2024/01/13 01:16:04;;;;;;;4.90;3.30;;;;;;;;;;5023787;28;20046;-81
2024/01/13 01:18:32;;;;;;;3.50;3.10;;;;;;;;;;5031509;28;20046;-80
2024/01/13 01:21:11;;;;;;;4.78;3.08;;;;;;;;;;5029256;28;20519;-82
2024/01/13 01:23:39;;;;;;;3.33;3.03;;;;;;;;;;5026158;28;20053;-81
2024/01/13 01:26:07;;;;;;;4.40;2.83;;;;;;;;;;5026382;28;20133;-82
2024/01/13 01:28:34;;;;;;;3.88;2.60;;;;;;;;;;5034665;28;20567;-81
2024/01/13 01:31:06;;;;;;;2.88;2.58;;;;;;;;;;5026298;28;20168;-82
2024/01/13 01:33:35;;;;;;;3.70;3.28;;;;;;;;;;5026529;28;20054;-81
2024/01/13 01:36:04;;;;;;;3.95;2.78;;;;;;;;;;5018091;28;20057;-80
2024/01/13 01:38:31;;;;;;;4.95;2.65;;;;;;;;;;5034864;28;20049;-82
2024/01/13 01:41:10;;;;;;;2.60;2.40;;;;;;;;;;5027259;28;20155;-82
2024/01/13 01:43:38;;;;;;;2.60;2.40;;;;;;;;;;5028452;28;20056;-82
2024/01/13 01:46:06;;;;;;;2.90;2.70;;;;;;;;;;5034676;28;20523;-82
2024/01/13 01:48:36;;;;;;;3.45;3.15;;;;;;;;;;5034777;28;20057;-82
2024/01/13 01:51:09;;;;;;;2.45;2.20;;;;;;;;;;5028654;28;20045;-82
2024/01/13 01:53:37;;;;;;;6.50;3.88;;;;;;;;;;5026615;28;20064;-81
2024/01/13 01:56:06;;;;;;;3.65;2.88;;;;;;;;;;5026855;28;20060;-81
2024/01/13 01:58:34;;;;;;;2.72;2.53;;;;;;;;;;5034610;28;20047;-81
2024/01/13 02:01:03;;;;;;;2.45;2.30;;;;;;;;;;5028283;28;20059;-82
2024/01/13 02:03:30;;;;;;;2.97;2.78;;;;;;;;;;5028023;28;20049;-81
2024/01/13 02:05:58;;;;;;;3.25;2.90;;;;;;;;;;5023044;28;20041;-82
2024/01/13 02:08:26;;;;;;;3.10;2.90;;;;;;;;;;5023975;28;20061;-82
2024/01/13 02:11:06;;;;;;;2.55;2.40;;;;;;;;;;5028155;28;20049;-82
2024/01/13 02:13:33;;;;;;;3.22;2.92;;;;;;;;;;5026829;28;20416;-82
2024/01/13 02:16:01;;;;;;;2.85;2.65;;;;;;;;;;5025305;28;20133;-82
2024/01/13 02:18:28;;;;;;;3.20;2.95;;;;;;;;;;5023853;28;20050;-81
2024/01/13 02:21:05;;;;;;;2.60;2.40;;;;;;;;;;5036656;28;20057;-82
2024/01/13 02:23:34;;;;;;;2.78;2.50;;;;;;;;;;5027832;28;20050;-82
2024/01/13 02:26:02;;;;;;;2.95;2.72;;;;;;;;;;5028511;28;20095;-82
2024/01/13 02:28:29;;;;;;;2.40;2.20;;;;;;;;;;5028953;28;20057;-82
2024/01/13 02:31:14;;;;;;;2.78;2.25;;;;;;;;;;5024965;28;20057;-81
2024/01/13 02:33:42;;;;;;;3.88;3.30;;;;;;;;;;5026093;28;20061;-82
2024/01/13 02:36:09;;;;;;;3.53;2.80;;;;;;;;;;5029686;28;20053;-82
2024/01/13 02:38:36;;;;;;;3.97;2.50;;;;;;;;;;5031749;28;20092;-81
2024/01/13 02:41:08;;;;;;;3.08;2.35;;;;;;;;;;5026310;28;20493;-81
2024/01/13 02:43:36;;;;;;;2.55;2.15;;;;;;;;;;5021180;28;20049;-82
2024/01/13 02:46:04;;;;;;;2.78;2.58;;;;;;;;;;5032233;28;20099;-81
2024/01/13 02:48:34;;;;;;;4.43;2.38;;;;;;;;;;5025917;28;20132;-81
2024/01/13 02:51:08;;;;;;;2.15;2.05;;;;;;;;;;5024559;28;20063;-81
2024/01/13 02:53:36;;;;;;;2.05;1.95;;;;;;;;;;5032574;28;20045;-81
2024/01/13 02:56:03;;;;;;;2.33;2.13;;;;;;;;;;5024425;28;20498;-81
2024/01/13 02:58:30;;;;;;;2.10;2.00;;;;;;;;;;5025584;28;20045;-81
2024/01/13 03:01:10;;;;;;;2.42;2.30;;;;;;;;;;5026256;28;20516;-82
2024/01/13 03:03:37;;;;;;;2.47;2.28;;;;;;;;;;5024635;28;20049;-80
2024/01/13 03:06:06;;;;;;;2.65;2.45;;;;;;;;;;5029955;28;20053;-82
2024/01/13 03:08:35;;;;;;;2.83;2.63;;;;;;;;;;5035285;28;20049;-81
2024/01/13 03:11:12;;;;;;;2.83;2.40;;;;;;;;;;5024630;28;20049;-81
2024/01/13 03:13:42;;;;;;;2.10;2.00;;;;;;;;;;5025640;28;20085;-81
2024/01/13 03:16:09;;;;;;;2.65;2.45;;;;;;;;;;5032197;28;20140;-81
2024/01/13 03:18:37;;;;;;;2.60;2.40;;;;;;;;;;5024915;28;20092;-82
2024/01/13 03:21:09;;;;;;;2.05;1.95;;;;;;;;;;5020728;28;20468;-82
2024/01/13 03:23:37;;;;;;;3.00;2.72;;;;;;;;;;5022357;28;20132;-81
2024/01/13 03:26:05;;;;;;;2.00;1.90;;;;;;;;;;5024454;28;20049;-81
2024/01/13 03:28:32;;;;;;;2.83;2.63;;;;;;;;;;5026007;28;20504;-81
2024/01/13 03:31:11;;;;;;;3.38;2.10;;;;;;;;;;5022646;28;20108;-82
2024/01/13 03:33:42;;;;;;;3.70;2.42;;;;;;;;;;5021392;28;20500;-82
2024/01/13 03:36:10;;;;;;;3.28;3.00;;;;;;;;;;5025839;28;20057;-81
2024/01/13 03:38:38;;;;;;;3.97;2.55;;;;;;;;;;5032931;28;20041;-82
2024/01/13 03:41:11;;;;;;;2.97;2.70;;;;;;;;;;5022958;28;20486;-81
2024/01/13 03:43:38;;;;;;;4.30;2.47;;;;;;;;;;5021674;28;20416;-82
2024/01/13 03:46:06;;;;;;;3.15;2.83;;;;;;;;;;5024287;28;20049;-82
2024/01/13 03:48:33;;;;;;;3.00;2.70;;;;;;;;;;5024688;28;20505;-81
2024/01/13 03:51:01;;;;;;;3.20;2.90;;;;;;;;;;5021873;28;20123;-81
2024/01/13 03:53:31;;;;;;;3.60;3.13;;;;;;;;;;5022634;28;20054;-81
2024/01/13 03:56:00;;;;;;;2.50;2.30;;;;;;;;;;5025902;28;20092;-81
2024/01/13 03:58:27;;;;;;;3.15;2.55;;;;;;;;;;5026798;28;20046;-82
2024/01/13 04:00:55;;;;;;;3.22;2.95;;;;;;;;;;5025540;28;20049;-81
2024/01/13 04:03:22;;;;;;;3.47;3.17;;;;;;;;;;5029082;28;20132;-82
2024/01/13 04:05:50;;;;;;;3.00;2.75;;;;;;;;;;5023187;28;20085;-82
2024/01/13 04:08:18;;;;;;;4.97;3.10;;;;;;;;;;5027109;28;20500;-82
2024/01/13 04:10:46;;;;;;;3.75;2.75;;;;;;;;;;5024372;28;20049;-81
2024/01/13 04:13:14;;;;;;;2.85;2.65;;;;;;;;;;5023604;28;20097;-82
2024/01/13 04:15:41;;;;;;;4.13;3.50;;;;;;;;;;5023909;28;20060;-81
2024/01/13 04:18:09;;;;;;;3.72;2.95;;;;;;;;;;5024967;28;20052;-81
2024/01/13 04:20:37;;;;;;;3.33;2.72;;;;;;;;;;5026024;28;20501;-81
2024/01/13 04:23:04;;;;;;;6.88;3.38;;;;;;;;;;5028365;28;20049;-82
2024/01/13 04:25:32;;;;;;;3.55;3.25;;;;;;;;;;5032178;28;20475;-82
2024/01/13 04:28:03;;;;;;;4.60;3.33;;;;;;;;;;5029098;28;20049;-82
2024/01/13 04:30:30;;;;;;;3.25;2.95;;;;;;;;;;5031872;28;20070;-82
2024/01/13 04:32:58;;;;;;;3.90;3.53;;;;;;;;;;5042585;28;20108;-82
2024/01/13 04:35:26;;;;;;;3.63;3.08;;;;;;;;;;5036968;28;20132;-82
2024/01/13 04:37:54;;;;;;;5.60;3.60;;;;;;;;;;5041929;28;20524;-82
2024/01/13 04:40:22;;;;;;;3.60;3.30;;;;;;;;;;5038101;28;20050;-82
2024/01/13 04:42:49;;;;;;;4.40;3.10;;;;;;;;;;5031961;28;20049;-82
2024/01/13 04:45:16;;;;;;;4.53;4.10;;;;;;;;;;5032965;28;20057;-82
2024/01/13 04:47:44;;;;;;;3.70;3.40;;;;;;;;;;5033106;28;20046;-82
2024/01/13 04:50:11;;;;;;;5.07;4.00;;;;;;;;;;5036063;28;20050;-82
2024/01/13 04:52:39;;;;;;;3.10;2.90;;;;;;;;;;5035374;28;20060;-82
2024/01/13 04:55:07;;;;;;;3.50;3.20;;;;;;;;;;5036549;28;20045;-82
2024/01/13 04:57:34;;;;;;;3.30;3.00;;;;;;;;;;5036980;28;20049;-82
2024/01/13 05:00:01;;;;;;;3.10;2.90;;;;;;;;;;5041739;28;20058;-81
2024/01/13 05:02:29;;;;;;;4.25;3.30;;;;;;;;;;5033020;28;20137;-82
2024/01/13 05:04:56;;;;;;;3.50;3.20;;;;;;;;;;5032324;28;20045;-82
2024/01/13 05:07:24;;;;;;;6.47;3.50;;;;;;;;;;5032206;28;20046;-82
2024/01/13 05:09:51;;;;;;;3.83;3.35;;;;;;;;;;5033772;28;20073;-82
2024/01/13 05:12:18;;;;;;;3.42;3.13;;;;;;;;;;5036128;28;20512;-82
2024/01/13 05:14:46;;;;;;;4.05;3.40;;;;;;;;;;5043879;28;20081;-82
2024/01/13 05:17:14;;;;;;;3.85;3.05;;;;;;;;;;5035089;28;20064;-82
2024/01/13 05:19:41;;;;;;;3.60;3.08;;;;;;;;;;5035901;28;20072;-82
2024/01/13 05:22:09;;;;;;;3.30;3.00;;;;;;;;;;5031827;28;20404;-82
2024/01/13 05:24:36;;;;;;;4.93;3.17;;;;;;;;;;5039722;28;20041;-82
2024/01/13 05:27:04;;;;;;;5.57;2.90;;;;;;;;;;5044701;28;20049;-82
2024/01/13 05:29:31;;;;;;;3.50;2.88;;;;;;;;;;5038404;28;20050;-82
2024/01/13 05:31:58;;;;;;;3.47;3.13;;;;;;;;;;5033944;28;20061;-82
2024/01/13 05:34:25;;;;;;;3.70;3.00;;;;;;;;;;5036037;28;20389;-82
2024/01/13 05:36:53;;;;;;;3.58;3.20;;;;;;;;;;5032956;28;20053;-82
2024/01/13 05:39:20;;;;;;;3.65;2.67;;;;;;;;;;5035864;28;20084;-82
2024/01/13 05:41:48;;;;;;;3.20;2.97;;;;;;;;;;5040734;28;20053;-82
2024/01/13 05:44:15;;;;;;;3.00;2.70;;;;;;;;;;5028540;28;20050;-81
2024/01/13 05:46:42;;;;;;;6.32;3.63;;;;;;;;;;5028912;28;20050;-80
2024/01/13 05:49:09;;;;;;;4.07;3.17;;;;;;;;;;5033900;28;20500;-81
2024/01/13 05:51:37;;;;;;;4.60;3.72;;;;;;;;;;5041999;28;20083;-81
2024/01/13 05:54:04;;;;;;;4.60;3.50;;;;;;;;;;5030218;28;20046;-80
2024/01/13 05:56:31;;;;;;;3.88;3.33;;;;;;;;;;5029837;28;20144;-81
2024/01/13 05:58:59;;;;;;;5.63;3.38;;;;;;;;;;5033386;28;20108;-81
2024/01/13 06:01:26;;;;;;;5.80;3.47;;;;;;;;;;5034907;28;20049;-81
2024/01/13 06:03:57;;;;;;;3.38;3.08;;;;;;;;;;5032328;28;20046;-81
2024/01/13 06:06:24;;;;;;;4.43;3.63;;;;;;;;;;5029787;28;20073;-81
2024/01/13 06:08:51;;;;;;;5.00;3.78;;;;;;;;;;5040026;28;20053;-81
2024/01/13 06:11:19;;;;;;;5.45;3.63;;;;;;;;;;5035774;28;20050;-80
2024/01/13 06:13:47;;;;;;;7.60;3.70;;;;;;;;;;5040058;28;20053;-81
2024/01/13 06:16:15;;;;;;;5.43;3.33;;;;;;;;;;5037297;28;20464;-81
2024/01/13 06:18:42;;;;;;;4.57;3.80;;;;;;;;;;5029992;28;20049;-81
2024/01/13 06:21:09;;;;;;;4.90;3.95;;;;;;;;;;5034397;28;20539;-81
2024/01/13 06:23:37;;;;;;;5.40;4.10;;;;;;;;;;5033301;28;20037;-81
2024/01/13 06:26:05;;;;;;;5.53;4.05;;;;;;;;;;5041877;28;20055;-80
2024/01/13 06:28:32;;;;;;;4.57;3.53;;;;;;;;;;5041432;28;20115;-81
2024/01/13 06:31:01;;;;;;;4.80;3.72;;;;;;;;;;5032384;28;20170;-80
2024/01/13 06:33:28;;;;;;;4.00;3.30;;;;;;;;;;5032389;28;20057;-81
2024/01/13 06:35:56;;;;;;;4.47;3.90;;;;;;;;;;5030365;28;20049;-81
2024/01/13 06:38:23;;;;;;;4.07;3.55;;;;;;;;;;5030554;28;20058;-81
2024/01/13 06:40:50;;;;;;;5.13;3.42;;;;;;;;;;5030297;28;20125;-81
2024/01/13 06:43:17;;;;;;;3.72;3.40;;;;;;;;;;5035548;28;20050;-81
2024/01/13 06:45:44;;;;;;;6.35;3.78;;;;;;;;;;5029625;28;20497;-81
2024/01/13 06:48:12;;;;;;;5.28;3.80;;;;;;;;;;5032566;28;20053;-81
2024/01/13 06:50:39;;;;;;;5.78;4.38;;;;;;;;;;5032485;28;20145;-81
2024/01/13 06:53:17;;;;;;;5.40;4.30;;;;;;;;;;5033926;28;20500;-81
2024/01/13 06:55:45;;;;;;;5.47;4.35;;;;;;;;;;5031095;28;20084;-81
2024/01/13 06:58:15;;;;;;;5.10;3.97;;;;;;;;;;5028606;28;20058;-81
2024/01/13 07:00:42;;;;;;;4.93;4.05;;;;;;;;;;5029163;28;20042;-81
2024/01/13 07:03:09;;;;;;;5.60;4.55;;;;;;;;;;5033274;28;20049;-81
2024/01/13 07:05:38;;;;;;;5.68;4.47;;;;;;;;;;5032296;28;20049;-81
2024/01/13 07:08:08;;;;;;;5.18;4.63;;;;;;;;;;5040011;28;20052;-81
2024/01/13 07:10:36;;;;;;;5.40;4.45;;;;;;;;;;5032082;28;20058;-81
2024/01/13 07:13:03;;;;;;;5.25;4.35;;;;;;;;;;5029224;28;20058;-81
2024/01/13 07:15:30;;;;;;;7.40;4.38;;;;;;;;;;5029441;28;20425;-81
2024/01/13 07:18:00;;;;;;;6.57;4.50;;;;;;;;;;5032460;28;20155;-81
2024/01/13 07:20:27;;;;;;;6.28;4.43;;;;;;;;;;5032634;28;20560;-81
2024/01/13 07:22:55;;;;;;;5.20;4.35;;;;;;;;;;5031087;28;20424;-81
2024/01/13 07:25:22;;;;;;;7.18;4.70;;;;;;;;;;5029002;28;20477;-80
2024/01/13 07:27:50;;;;;;;6.97;4.40;;;;;;;;;;5030871;28;20046;-81
2024/01/13 07:30:18;;;;;;;6.22;4.25;;;;;;;;;;5031824;28;20049;-81
2024/01/13 07:32:45;;;;;;;5.13;4.15;;;;;;;;;;5031590;28;20056;-81
2024/01/13 07:35:13;;;;;;;5.60;4.50;;;;;;;;;;5027973;28;20054;-81
2024/01/13 07:37:40;;;;;;;5.53;4.20;;;;;;;;;;5028349;28;20050;-81
2024/01/13 07:40:08;;;;;;;8.90;4.80;;;;;;;;;;5032033;28;20053;-81
2024/01/13 07:42:38;;;;;;;5.15;4.47;;;;;;;;;;5039677;28;20050;-81
2024/01/13 07:45:06;;;;;;;4.90;4.10;;;;;;;;;;5040146;28;20115;-81
2024/01/13 07:47:33;;;;;;;7.63;4.50;;;;;;;;;;5033745;28;20113;-81
2024/01/13 07:50:03;;;;;;;5.55;4.30;;;;;;;;;;5030690;28;20045;-81
2024/01/13 07:52:31;;;;;;;5.20;4.57;;;;;;;;;;5031255;28;20049;-81
2024/01/13 07:54:58;;;;;;;6.70;4.82;;;;;;;;;;5029156;28;20053;-81
2024/01/13 07:57:27;;;;;;;10.90;4.53;;;;;;;;;;5028318;28;20057;-81
2024/01/13 07:59:54;;;;;;;4.68;4.18;;;;;;;;;;5030089;28;20046;-81
2024/01/13 08:02:22;;;;;;;6.28;4.60;;;;;;;;;;5031502;28;20050;-81
2024/01/13 08:04:49;;;;;;;6.50;4.18;;;;;;;;;;5035287;28;20054;-81
2024/01/13 08:07:17;;;;;;;6.95;5.20;;;;;;;;;;5032496;28;21130;-81
2024/01/13 08:09:44;;;;;;;6.57;4.78;;;;;;;;;;5033731;28;20054;-81
2024/01/13 08:12:11;;;;;;;5.60;4.63;;;;;;;;;;5035954;28;20056;-81
2024/01/13 08:14:39;;;;;;;4.85;4.30;;;;;;;;;;5035652;28;20077;-81
2024/01/13 08:17:07;;;;;;;4.75;4.15;;;;;;;;;;5032251;28;20060;-81
2024/01/13 08:19:34;;;;;;;5.60;4.32;;;;;;;;;;5031386;28;20046;-82
2024/01/13 08:22:02;;;;;;;5.28;4.38;;;;;;;;;;5035439;28;20104;-82
2024/01/13 08:24:30;;;;;;;7.57;4.20;;;;;;;;;;5045320;28;20042;-82
2024/01/13 08:26:58;;;;;;;5.40;4.63;;;;;;;;;;5033967;28;20072;-82
2024/01/13 08:29:25;;;;;;;5.97;4.70;;;;;;;;;;5033080;28;20053;-82
2024/01/13 08:31:52;;;;;;;23.40;13.52;;;;;;;;;;5034697;28;20108;-82
2024/01/13 08:34:20;;;;;;;41.60;23.75;;;;;;;;;;5035385;28;20061;-82
2024/01/13 08:36:47;;;;;;;10.93;8.27;;;;;;;;;;5043685;28;20420;-82
2024/01/13 08:39:14;;;;;;;5.60;4.47;;;;;;;;;;5035139;28;20107;-82
2024/01/13 08:41:42;;;;;;;4.93;4.18;;;;;;;;;;5036241;28;20058;-82
2024/01/13 08:44:11;;;;;;;6.85;5.32;;;;;;;;;;5031693;28;20512;-82
2024/01/13 08:46:38;;;;;;;5.07;4.35;;;;;;;;;;5031542;28;20096;-82
2024/01/13 08:49:05;;;;;;;6.13;5.18;;;;;;;;;;5036229;28;20053;-82
2024/01/13 08:51:33;;;;;;;6.90;5.15;;;;;;;;;;5036339;28;20046;-82
2024/01/13 08:54:06;;;;;;;5.85;4.63;;;;;;;;;;5031697;28;20054;-82
2024/01/13 08:56:36;;;;;;;6.03;4.85;;;;;;;;;;5031874;28;20054;-81
2024/01/13 08:59:06;;;;;;;7.82;5.50;;;;;;;;;;5034468;28;20061;-82
2024/01/13 09:01:34;;;;;;;8.43;5.35;;;;;;;;;;5034499;28;20049;-82
2024/01/13 09:04:06;;;;;;;7.50;5.03;;;;;;;;;;5039128;28;20060;-82
2024/01/13 09:06:33;;;;;;;6.25;4.70;;;;;;;;;;5031361;28;20052;-82
2024/01/13 09:09:01;;;;;;;7.50;5.85;;;;;;;;;;5034146;28;20081;-82
2024/01/13 09:11:29;;;;;;;5.85;4.90;;;;;;;;;;5034571;28;20105;-82
2024/01/13 09:14:09;;;;;;;7.07;5.70;;;;;;;;;;5034838;28;20042;-82
2024/01/13 09:16:36;;;;;;;6.03;4.88;;;;;;;;;;5033279;28;20041;-82
2024/01/13 09:19:04;;;;;;;10.63;5.28;;;;;;;;;;5028597;28;20042;-82
2024/01/13 09:21:32;;;;;;;6.28;4.90;;;;;;;;;;5028516;28;20046;-81
2024/01/13 09:24:09;;;;;;;7.70;5.53;;;;;;;;;;5032095;28;20045;-82
2024/01/13 09:26:41;;;;;;;6.40;5.10;;;;;;;;;;5032013;28;20053;-84
2024/01/13 09:29:12;;;;;;;6.80;5.45;;;;;;;;;;5027576;28;20046;-82
2024/01/13 09:31:39;;;;;;;6.10;4.88;;;;;;;;;;5028978;28;20054;-81
2024/01/13 09:34:08;;;;;;;9.18;5.85;;;;;;;;;;5031610;28;20045;-82
2024/01/13 09:36:38;;;;;;;5.78;4.90;;;;;;;;;;5031025;28;20049;-81
2024/01/13 09:39:05;;;;;;;7.20;5.43;;;;;;;;;;5028148;28;20112;-82
2024/01/13 09:41:34;;;;;;;6.10;5.13;;;;;;;;;;5028216;28;20113;-81
2024/01/13 09:44:21;;;;;;;6.85;5.28;;;;;;;;;;5030104;28;20124;-82
2024/01/13 09:46:51;;;;;;;5.95;5.03;;;;;;;;;;5030772;28;20041;-82
2024/01/13 09:49:20;;;;;;;6.25;4.93;;;;;;;;;;5027663;28;20081;-83
2024/01/13 09:51:48;;;;;;;6.03;5.40;;;;;;;;;;5037468;28;20080;-82
2024/01/13 09:54:22;;;;;;;6.68;5.10;;;;;;;;;;5033956;28;20050;-82
2024/01/13 09:56:50;;;;;;;6.65;5.15;;;;;;;;;;5028974;28;20073;-83
2024/01/13 09:59:22;;;;;;;7.43;5.30;;;;;;;;;;5040335;28;20046;-83
2024/01/13 10:01:51;;;;;;;7.63;5.60;;;;;;;;;;5031594;28;20100;-82
2024/01/13 10:04:19;;;;;;;6.35;4.82;;;;;;;;;;5038723;28;20053;-82
2024/01/13 10:06:47;;;;;;;7.28;5.45;;;;;;;;;;5030171;28;20076;-82
2024/01/13 10:09:15;;;;;;;8.57;5.88;;;;;;;;;;5031309;28;20052;-81
2024/01/13 10:12:00;;;;;;;7.22;5.80;;;;;;;;;;5026468;28;20049;-81
2024/01/13 10:14:28;;;;;;;8.40;6.03;;;;;;;;;;5027067;28;20543;-81
2024/01/13 10:16:56;;;;;;;7.55;5.50;;;;;;;;;;5027763;28;20100;-82
2024/01/13 10:19:24;;;;;;;8.20;6.15;;;;;;;;;;5029624;28;20456;-82
2024/01/13 10:21:56;;;;;;;6.18;5.07;;;;;;;;;;5026882;28;20128;-82
2024/01/13 10:24:24;;;;;;;8.95;5.93;;;;;;;;;;5025703;28;20046;-81
2024/01/13 10:26:51;;;;;;;7.63;5.70;;;;;;;;;;5026186;28;20076;-81
2024/01/13 10:29:19;;;;;;;6.65;5.43;;;;;;;;;;5029963;28;20049;-82
2024/01/13 10:31:50;;;;;;;8.05;6.05;;;;;;;;;;5028336;28;20081;-82
2024/01/13 10:34:19;;;;;;;8.65;6.30;;;;;;;;;;5030007;28;20053;-82
2024/01/13 10:36:46;;;;;;;8.52;6.25;;;;;;;;;;5037033;28;20053;-82
2024/01/13 10:39:14;;;;;;;11.20;7.22;;;;;;;;;;5028178;28;20504;-82
2024/01/13 10:41:44;;;;;;;7.13;5.80;;;;;;;;;;5029459;28;20145;-81
2024/01/13 10:44:13;;;;;;;8.52;6.18;;;;;;;;;;5024571;28;20050;-82
2024/01/13 10:46:42;;;;;;;7.45;5.55;;;;;;;;;;5025323;28;20046;-82
2024/01/13 10:49:15;;;;;;;9.50;6.38;;;;;;;;;;5028551;28;20123;-81
2024/01/13 10:51:47;;;;;;;12.88;7.15;;;;;;;;;;5036685;28;20075;-82
2024/01/13 10:54:16;;;;;;;7.28;5.32;;;;;;;;;;5025676;28;20168;-81
2024/01/13 10:56:44;;;;;;;6.43;5.55;;;;;;;;;;5025665;28;20046;-81
2024/01/13 10:59:11;;;;;;;8.20;6.30;;;;;;;;;;5028990;28;20084;-81
2024/01/13 11:01:39;;;;;;;6.72;5.28;;;;;;;;;;5029058;28;20109;-81
2024/01/13 11:04:07;;;;;;;7.57;6.00;;;;;;;;;;5028286;28;20061;-80
2024/01/13 11:06:35;;;;;;;6.78;5.43;;;;;;;;;;5037687;28;20042;-81
2024/01/13 11:09:03;;;;;;;7.30;5.50;;;;;;;;;;5027940;28;20480;-81
2024/01/13 11:11:33;;;;;;;7.07;5.65;;;;;;;;;;5027012;28;20092;-81
2024/01/13 11:14:08;;;;;;;8.45;6.20;;;;;;;;;;5030677;28;20049;-81
2024/01/13 11:16:37;;;;;;;7.15;5.65;;;;;;;;;;5030884;28;20459;-81
2024/01/13 11:19:06;;;;;;;6.88;4.95;;;;;;;;;;5028054;28;20080;-82
2024/01/13 11:21:34;;;;;;;9.80;5.82;;;;;;;;;;5035568;28;20052;-81
2024/01/13 11:24:13;;;;;;;7.22;5.40;;;;;;;;;;5032105;28;20042;-82
2024/01/13 11:27:00;;;;;;;7.43;5.95;;;;;;;;;;5036921;28;20072;-80
2024/01/13 11:29:30;;;;;;;7.93;6.00;;;;;;;;;;5027594;28;20057;-82
2024/01/13 11:31:58;;;;;;;7.20;5.65;;;;;;;;;;5037057;28;20488;-82
2024/01/13 11:34:27;;;;;;;7.00;5.47;;;;;;;;;;5030249;28;20076;-80
2024/01/13 11:36:59;;;;;;;8.55;6.32;;;;;;;;;;5024625;28;20050;-81
2024/01/13 11:39:27;;;;;;;7.25;5.65;;;;;;;;;;5030267;28;20461;-82
2024/01/13 11:41:55;;;;;;;7.63;5.88;;;;;;;;;;5029415;28;20051;-81
2024/01/13 11:44:30;;;;;;;7.40;5.90;;;;;;;;;;5026931;28;20045;-81
2024/01/13 11:47:06;;;;;;;6.97;5.85;;;;;;;;;;5027582;28;20099;-81
2024/01/13 11:49:38;;;;;;;8.90;6.40;;;;;;;;;;5029332;28;20052;-80
2024/01/13 11:52:06;;;;;;;7.43;5.85;;;;;;;;;;5034131;28;20072;-80
2024/01/13 11:54:35;;;;;;;8.02;5.85;;;;;;;;;;5026469;28;20125;-81
2024/01/13 11:57:03;;;;;;;8.52;5.95;;;;;;;;;;5029872;28;20053;-81
2024/01/13 11:59:31;;;;;;;8.27;6.40;;;;;;;;;;5038948;28;20049;-81
2024/01/13 12:01:58;;;;;;;8.30;6.60;;;;;;;;;;5031588;28;20046;-81
2024/01/13 12:04:29;;;;;;;8.52;6.70;;;;;;;;;;5038872;28;20053;-81
2024/01/13 12:06:56;;;;;;;9.13;7.15;;;;;;;;;;5039560;28;20052;-81
2024/01/13 12:09:24;;;;;;;9.85;6.55;;;;;;;;;;5030874;28;20053;-81
2024/01/13 12:11:59;;;;;;;8.75;6.18;;;;;;;;;;5029512;28;20146;-81
2024/01/13 12:14:30;;;;;;;7.18;6.18;;;;;;;;;;5027432;28;20073;-81
2024/01/13 12:16:58;;;;;;;7.70;6.10;;;;;;;;;;5029723;28;20060;-81
2024/01/13 12:19:27;;;;;;;9.88;7.28;;;;;;;;;;5030110;28;20049;-81
2024/01/13 12:21:55;;;;;;;11.18;8.13;;;;;;;;;;5028147;28;20109;-81
2024/01/13 12:24:26;;;;;;;10.65;6.95;;;;;;;;;;5026220;28;20046;-79
2024/01/13 12:26:53;;;;;;;10.55;6.63;;;;;;;;;;5037514;28;20054;-80
2024/01/13 12:29:24;;;;;;;11.15;7.60;;;;;;;;;;5030668;28;20045;-81
2024/01/13 12:31:51;;;;;;;10.32;7.28;;;;;;;;;;5028998;28;20053;-80
2024/01/13 12:34:20;;;;;;;10.70;7.22;;;;;;;;;;5026294;28;20182;-81
2024/01/13 12:36:48;;;;;;;10.55;7.30;;;;;;;;;;5027758;28;20060;-81
2024/01/13 12:39:15;;;;;;;9.52;7.20;;;;;;;;;;5031052;28;20049;-81
2024/01/13 12:41:42;;;;;;;9.88;7.43;;;;;;;;;;5030549;28;20095;-81
2024/01/13 12:44:26;;;;;;;9.45;7.25;;;;;;;;;;5034557;28;20058;-81
2024/01/13 12:46:55;;;;;;;11.03;7.17;;;;;;;;;;5028570;28;20081;-81
2024/01/13 12:49:22;;;;;;;10.25;7.50;;;;;;;;;;5030718;28;20049;-81
2024/01/13 12:51:54;;;;;;;10.32;7.47;;;;;;;;;;5033605;28;20050;-81
2024/01/13 12:54:22;;;;;;;9.77;7.22;;;;;;;;;;5031093;28;20050;-81
2024/01/13 12:56:50;;;;;;;9.45;7.28;;;;;;;;;;5030853;28;20058;-80
2024/01/13 12:59:18;;;;;;;10.38;7.68;;;;;;;;;;5033713;28;20117;-81
2024/01/13 13:01:46;;;;;;;13.80;8.63;;;;;;;;;;5032747;28;20484;-81
2024/01/13 13:04:14;;;;;;;11.05;7.95;;;;;;;;;;5030174;28;20053;-80
2024/01/13 13:06:42;;;;;;;11.10;7.45;;;;;;;;;;5030535;28;20050;-80
2024/01/13 13:09:10;;;;;;;12.10;7.70;;;;;;;;;;5042294;28;20042;-81
2024/01/13 13:11:39;;;;;;;11.27;8.05;;;;;;;;;;5041804;28;20057;-80
2024/01/13 13:14:07;;;;;;;9.65;8.02;;;;;;;;;;5034008;28;20481;-80
2024/01/13 13:16:34;;;;;;;12.77;7.68;;;;;;;;;;5033309;28;20072;-81
2024/01/13 13:19:03;;;;;;;10.90;7.97;;;;;;;;;;5029926;28;20104;-80
2024/01/13 13:21:31;;;;;;;11.60;8.13;;;;;;;;;;5036288;28;20045;-81
2024/01/13 13:23:59;;;;;;;11.85;7.53;;;;;;;;;;5039153;28;20052;-80
2024/01/13 13:26:26;;;;;;;10.80;8.00;;;;;;;;;;5029702;28;20133;-81
2024/01/13 13:28:53;;;;;;;12.43;8.30;;;;;;;;;;5032913;28;20057;-81
2024/01/13 13:31:21;;;;;;;12.00;8.63;;;;;;;;;;5032616;28;20050;-81
2024/01/13 13:33:48;;;;;;;18.15;10.07;;;;;;;;;;5030886;28;20057;-81
2024/01/13 13:36:15;;;;;;;13.40;8.52;;;;;;;;;;5029613;28;20046;-81
2024/01/13 13:38:43;;;;;;;14.45;9.40;;;;;;;;;;5030146;28;20054;-81
2024/01/13 13:41:10;;;;;;;14.70;9.10;;;;;;;;;;5034269;28;20485;-80
2024/01/13 13:43:37;;;;;;;13.95;9.07;;;;;;;;;;5034646;28;20077;-81
2024/01/13 13:46:05;;;;;;;13.05;9.40;;;;;;;;;;5033121;28;20046;-82
2024/01/13 13:48:35;;;;;;;16.85;10.07;;;;;;;;;;5028324;28;20064;-82
2024/01/13 13:51:04;;;;;;;14.93;9.25;;;;;;;;;;5029837;28;20054;-82
2024/01/13 13:53:32;;;;;;;14.95;9.40;;;;;;;;;;5028125;28;20046;-81
2024/01/13 13:56:00;;;;;;;14.20;9.25;;;;;;;;;;5026817;28;20081;-82
2024/01/13 13:58:27;;;;;;;13.38;9.30;;;;;;;;;;5036457;28;20057;-82
2024/01/13 14:00:55;;;;;;;12.55;9.48;;;;;;;;;;5028364;28;20132;-81
2024/01/13 14:03:22;;;;;;;13.48;8.93;;;;;;;;;;5029418;28;20103;-82
2024/01/13 14:05:49;;;;;;;13.13;9.50;;;;;;;;;;5028309;28;20045;-82
2024/01/13 14:08:17;;;;;;;13.15;8.85;;;;;;;;;;5024964;28;20490;-81
2024/01/13 14:10:44;;;;;;;14.55;9.77;;;;;;;;;;5027335;28;20421;-81
2024/01/13 14:13:11;;;;;;;16.13;10.02;;;;;;;;;;5027894;28;20057;-82
2024/01/13 14:15:39;;;;;;;13.85;10.00;;;;;;;;;;5028656;28;20096;-82
2024/01/13 14:18:06;;;;;;;13.27;9.77;;;;;;;;;;5026451;28;20509;-82
2024/01/13 14:20:36;;;;;;;13.20;9.27;;;;;;;;;;5024975;28;20056;-81
2024/01/13 14:23:03;;;;;;;13.27;8.88;;;;;;;;;;5027371;28;20076;-82
2024/01/13 14:25:30;;;;;;;14.98;9.98;;;;;;;;;;5028484;28;20050;-82
2024/01/13 14:27:59;;;;;;;15.50;10.00;;;;;;;;;;5026046;28;20055;-82
2024/01/13 14:30:26;;;;;;;13.57;9.10;;;;;;;;;;5026149;28;20050;-82
2024/01/13 14:32:53;;;;;;;17.17;10.10;;;;;;;;;;5028245;28;20072;-82
2024/01/13 14:35:21;;;;;;;15.63;9.85;;;;;;;;;;5028879;28;20045;-82
2024/01/13 14:37:50;;;;;;;13.75;9.70;;;;;;;;;;5030401;28;20059;-82
2024/01/13 14:40:18;;;;;;;15.18;10.18;;;;;;;;;;5036624;28;20084;-82
2024/01/13 14:42:46;;;;;;;13.80;9.68;;;;;;;;;;5027518;28;20053;-82
2024/01/13 14:45:13;;;;;;;15.02;10.00;;;;;;;;;;5025322;28;20050;-82
2024/01/13 14:47:51;;;;;;;15.35;10.00;;;;;;;;;;5025929;28;20129;-82
2024/01/13 14:50:21;;;;;;;16.98;10.98;;;;;;;;;;5028590;28;20473;-82